Etusivu
METAR-TAF:

METAR-TAF

Lentoasemat :

Draughon-Miller Central Texas Regional Airport

Temple, Texas, Yhdysvallat

Leveyspiiri: 31-09N, Pituuspiiri: 097-24W, korkeus merenpinnasta: 208 m

Tämänhetkinen sää

Tämä raportti tehtiin 51 minuuttia sitten, kello 13.51 UTC
Tuuli 12 kn etelästä/kaakosta
Lämpötila 21°C
Kosteus 94%
Ilmanpaine 1012 hPa
Näkyvyys: 9.7 km
Pilvistä 500 ft:n korkeudessa
utua

METAR: KTPL 161351Z AUTO 15012KT 6SM BR OVC005 21/20 A2987 RMK AO2 CIG 005V009 SLP106 T02060200

Aika: 09:42 (14:42 UTC)


TAF: puuttuu

Säähavainnot ja -ennusteet yli 4000 lentoasemalta (METAR- ja TAF-raportit).

Käytössä olevat sääasemat on merkitty karttaan keltaisilla ja punaisilla pisteillä.

Aseta hiiri pisteen päälle nähdäksesi sääaseman nimen.

Klikkaa sitten nähdäksesi säähavainnot ja -ennusteet.

Kartan vaihtaminen: klikkaa mustalla rastilla varustettuja vihreitä pisteitä, niin voit zoomata sisään; viivalla varustettua vihreää pistettä, niin voit zoomata ulos tai vihreitä nuolia, niin pääset viereisille kartoille.


METAR-TAF: